Time;durP1;ratioP1;P1;durP2;ratioP2;P2;SDS_P1;SDS_P2;PMS_P1;PMS_P2;Temp;Humidity;BMP_temperature;BMP_pressure;BME280_temperature;BME280_humidity;BME280_pressure;Samples;Min_cycle;Max_cycle;Signal;HPM_P1;HPM_P2
2023/01/21 00:01:09;;;;;;;2.80;2.50;;;1.70;99.90;;;;;;5026538;28;20572;-62
2023/01/21 00:03:37;;;;;;;2.08;1.83;;;1.80;99.90;;;;;;5022885;28;20210;-62
2023/01/21 00:06:05;;;;;;;3.30;2.15;;;1.80;99.90;;;;;;5025286;28;20208;-62
2023/01/21 00:08:33;;;;;;;3.10;2.35;;;1.70;99.90;;;;;;5021680;28;20729;-62
2023/01/21 00:11:05;;;;;;;2.83;2.00;;;1.80;99.90;;;;;;5020588;28;20746;-62
2023/01/21 00:13:35;;;;;;;3.15;2.88;;;1.80;99.90;;;;;;5020347;28;20642;-62
2023/01/21 00:16:04;;;;;;;2.42;2.22;;;1.70;99.90;;;;;;5019991;28;20247;-61
2023/01/21 00:18:33;;;;;;;2.20;2.00;;;1.90;99.90;;;;;;5027821;28;20217;-62
2023/01/21 00:21:01;;;;;;;3.47;2.92;;;1.70;99.90;;;;;;5029609;28;20621;-62
2023/01/21 00:23:29;;;;;;;3.03;1.75;;;1.50;99.90;;;;;;5029396;28;20658;-62
2023/01/21 00:25:58;;;;;;;3.05;2.75;;;1.50;99.90;;;;;;5044565;28;20255;-62
2023/01/21 00:28:28;;;;;;;3.28;2.67;;;1.40;99.90;;;;;;5050146;28;20336;-62
2023/01/21 00:31:01;;;;;;;3.00;2.30;;;1.30;99.90;;;;;;5049536;28;20227;-62
2023/01/21 00:33:30;;;;;;;3.50;2.90;;;1.30;99.90;;;;;;5050516;28;20197;-62
2023/01/21 00:36:00;;;;;;;2.65;2.20;;;1.30;99.90;;;;;;5021791;28;20281;-62
2023/01/21 00:38:28;;;;;;;3.13;2.75;;;1.40;99.90;;;;;;5017406;28;20214;-63
2023/01/21 00:41:00;;;;;;;3.88;3.50;;;1.50;99.90;;;;;;5033267;28;20575;-63
2023/01/21 00:43:29;;;;;;;3.75;1.83;;;1.50;99.90;;;;;;5034134;28;20200;-64
2023/01/21 00:45:57;;;;;;;3.30;2.30;;;1.40;99.90;;;;;;5033965;28;20224;-63
2023/01/21 00:48:28;;;;;;;2.67;2.17;;;1.30;99.90;;;;;;5033169;28;20220;-63
2023/01/21 00:50:59;;;;;;;3.70;3.40;;;1.30;99.90;;;;;;5013276;28;20212;-63
2023/01/21 00:53:28;;;;;;;4.00;3.03;;;1.30;99.90;;;;;;5032750;28;20569;-63
2023/01/21 00:55:59;;;;;;;2.20;2.00;;;1.30;99.90;;;;;;5048050;28;20224;-63
2023/01/21 00:58:27;;;;;;;4.40;3.65;;;1.20;99.90;;;;;;5053643;28;20219;-63
2023/01/21 01:01:01;;;;;;;2.28;2.08;;;1.40;99.90;;;;;;5053072;28;20288;-64
2023/01/21 01:03:31;;;;;;;3.90;3.13;;;1.20;99.90;;;;;;5053613;28;20258;-63
2023/01/21 01:06:03;;;;;;;2.40;2.20;;;1.20;99.90;;;;;;5035316;28;20656;-63
2023/01/21 01:08:31;;;;;;;2.85;2.30;;;1.10;99.90;;;;;;5032736;28;20229;-63
2023/01/21 01:10:59;;;;;;;1.70;1.60;;;1.10;99.90;;;;;;5032572;28;20224;-63
2023/01/21 01:13:27;;;;;;;3.95;1.90;;;1.10;99.90;;;;;;5033332;28;20616;-63
2023/01/21 01:15:57;;;;;;;4.55;2.83;;;1.20;99.90;;;;;;5018152;28;20202;-63
2023/01/21 01:18:26;;;;;;;2.47;2.22;;;1.10;99.90;;;;;;5013732;28;20209;-63
2023/01/21 01:20:55;;;;;;;3.15;2.72;;;1.10;99.90;;;;;;5012865;28;20203;-63
2023/01/21 01:23:24;;;;;;;5.95;3.65;;;1.10;99.90;;;;;;5031798;28;20210;-63
2023/01/21 01:25:55;;;;;;;4.28;2.40;;;1.20;99.90;;;;;;5034593;28;20694;-63
2023/01/21 01:28:23;;;;;;;4.40;2.67;;;1.30;99.90;;;;;;5091712;22;20308;-66
2023/01/21 01:30:51;;;;;;;2.85;2.05;;;1.20;99.90;;;;;;5049865;28;20196;-66
2023/01/21 01:33:19;;;;;;;3.38;2.53;;;1.20;99.90;;;;;;5049916;28;20218;-68
2023/01/21 01:35:47;;;;;;;4.32;3.55;;;1.10;99.90;;;;;;5051702;28;20717;-65
2023/01/21 01:38:19;;;;;;;2.80;2.60;;;1.20;99.90;;;;;;5038635;28;20315;-65
2023/01/21 01:40:49;;;;;;;4.03;3.30;;;1.10;99.90;;;;;;5029353;28;20210;-65
2023/01/21 01:43:19;;;;;;;4.70;2.63;;;1.10;99.90;;;;;;5028066;28;20291;-66
2023/01/21 01:45:48;;;;;;;2.58;2.38;;;1.00;99.90;;;;;;5028415;28;20304;-64
2023/01/21 01:48:19;;;;;;;2.67;2.05;;;1.10;99.90;;;;;;5027436;28;20267;-65
2023/01/21 01:50:48;;;;;;;3.38;3.08;;;0.90;99.90;;;;;;5019611;28;20228;-66
2023/01/21 01:53:19;;;;;;;5.05;4.55;;;0.90;99.90;;;;;;5022985;28;20573;-66
2023/01/21 01:55:48;;;;;;;3.15;2.42;;;0.90;99.90;;;;;;5024543;28;20193;-67
2023/01/21 01:58:19;;;;;;;3.70;2.97;;;0.90;99.90;;;;;;5034055;28;20225;-66
2023/01/21 02:00:46;;;;;;;2.40;2.15;;;0.90;99.90;;;;;;5033350;28;20224;-66
2023/01/21 02:06:02;;;;;;;3.15;1.77;;;0.80;99.90;;;;;;5027211;28;20220;-67
2023/01/21 02:08:34;;;;;;;3.33;2.38;;;0.70;99.90;;;;;;5029456;28;20224;-68
2023/01/21 02:11:06;;;;;;;2.22;1.70;;;0.90;99.90;;;;;;5029414;28;20208;-67
2023/01/21 02:13:34;;;;;;;1.92;1.75;;;0.90;99.90;;;;;;5021683;28;20580;-67
2023/01/21 02:16:18;;;;;;;2.63;1.67;;;0.80;99.90;;;;;;5026167;28;20301;-67
2023/01/21 02:18:55;;;;;;;2.05;1.88;;;0.80;99.90;;;;;;5021535;28;20224;-67
2023/01/21 02:21:52;;;;;;;2.75;1.48;;;0.70;99.90;;;;;;5025652;28;20599;-67
2023/01/21 02:25:01;;;;;;;2.55;2.13;;;0.70;99.90;;;;;;5029835;28;20296;-66
2023/01/21 02:27:58;;;;;;;2.85;2.65;;;0.60;99.90;;;;;;4980077;28;20304;-67
2023/01/21 02:30:40;;;;;;;2.72;2.40;;;0.60;99.90;;;;;;5027242;28;20610;-67
2023/01/21 02:33:32;;;;;;;2.47;2.28;;;0.70;99.90;;;;;;5027470;28;20207;-67
2023/01/21 02:36:10;;;;;;;2.55;2.35;;;0.50;99.90;;;;;;5012661;28;20284;-67
2023/01/21 02:38:44;;;;;;;2.88;2.40;;;0.50;99.90;;;;;;5028329;28;20281;-67
2023/01/21 02:41:23;;;;;;;2.42;2.05;;;0.40;99.90;;;;;;5021200;28;20288;-67
2023/01/21 02:43:57;;;;;;;2.60;1.45;;;0.40;99.90;;;;;;5024733;28;20236;-68
2023/01/21 02:46:39;;;;;;;1.83;1.63;;;0.50;99.90;;;;;;5024403;28;20291;-67
2023/01/21 02:49:15;;;;;;;2.45;1.80;;;0.50;99.90;;;;;;5025376;28;20556;-68
2023/01/21 02:51:46;;;;;;;2.90;1.90;;;0.50;99.90;;;;;;5027310;28;20287;-67
2023/01/21 02:54:36;;;;;;;3.08;1.85;;;0.40;99.90;;;;;;5028703;28;20287;-68
2023/01/21 02:57:04;;;;;;;4.03;2.45;;;0.50;99.90;;;;;;5029980;28;20229;-68
2023/01/21 02:59:34;;;;;;;2.92;2.72;;;0.50;99.90;;;;;;5027546;28;20212;-68
2023/01/21 03:02:13;;;;;;;3.35;2.53;;;0.40;99.90;;;;;;5032069;28;20637;-69
2023/01/21 03:04:52;;;;;;;2.35;2.08;;;0.20;99.90;;;;;;5023915;28;20576;-66
2023/01/21 03:07:27;;;;;;;1.25;1.15;;;0.20;99.90;;;;;;5026950;28;20228;-67
2023/01/21 03:10:01;;;;;;;4.18;3.30;;;0.30;99.90;;;;;;5026650;28;20282;-68
2023/01/21 03:12:41;;;;;;;2.08;1.85;;;0.30;99.90;;;;;;5025712;28;20661;-69
2023/01/21 03:18:07;;;;;;;2.67;1.88;;;0.40;99.90;;;;;;5027121;28;20224;-69
2023/01/21 03:20:42;;;;;;;3.40;2.78;;;0.60;99.90;;;;;;5030324;28;20195;-68
2023/01/21 03:23:14;;;;;;;1.50;1.40;;;0.60;99.90;;;;;;5030388;28;20665;-68
2023/01/21 03:25:42;;;;;;;1.75;1.65;;;0.50;99.90;;;;;;5027952;28;20216;-68
2023/01/21 03:28:15;;;;;;;2.55;2.05;;;0.40;99.90;;;;;;5029098;28;20314;-68
2023/01/21 03:30:48;;;;;;;2.35;2.15;;;0.60;99.90;;;;;;5026796;28;20232;-68
2023/01/21 03:33:18;;;;;;;1.83;1.73;;;0.40;99.90;;;;;;5024891;28;20200;-68
2023/01/21 03:35:50;;;;;;;3.70;2.17;;;0.30;99.90;;;;;;5024297;28;20207;-68
2023/01/21 03:38:24;;;;;;;1.40;1.30;;;0.20;99.90;;;;;;5027202;28;20244;-67
2023/01/21 03:40:58;;;;;;;2.60;1.73;;;0.30;99.90;;;;;;5028381;28;20279;-67
2023/01/21 03:43:26;;;;;;;3.42;2.85;;;0.20;99.90;;;;;;5027972;28;20255;-67
2023/01/21 03:46:01;;;;;;;2.00;1.90;;;0.10;99.90;;;;;;5024325;28;20224;-67
2023/01/21 03:48:35;;;;;;;1.30;1.20;;;0.10;99.90;;;;;;5026918;28;20637;-68
2023/01/21 03:51:08;;;;;;;1.92;1.80;;;0.10;99.90;;;;;;5018048;28;20197;-67
2023/01/21 03:53:36;;;;;;;1.58;1.48;;;0.00;99.90;;;;;;5029991;28;20212;-68
2023/01/21 03:56:04;;;;;;;1.40;1.30;;;-0.10;99.90;;;;;;5028683;28;20193;-68
2023/01/21 03:58:32;;;;;;;1.90;1.35;;;-0.20;99.90;;;;;;5028667;28;20307;-68
2023/01/21 04:01:00;;;;;;;3.13;1.50;;;-0.30;99.90;;;;;;5027498;28;20205;-68
2023/01/21 04:03:28;;;;;;;2.55;1.90;;;-0.50;99.90;;;;;;5027251;28;20304;-68
2023/01/21 04:05:56;;;;;;;2.15;1.33;;;-0.40;99.90;;;;;;5027632;28;20239;-68
2023/01/21 04:08:25;;;;;;;1.30;1.15;;;-0.30;99.90;;;;;;5027001;28;20216;-68
2023/01/21 04:10:53;;;;;;;4.22;2.00;;;-0.10;99.90;;;;;;5025762;28;20197;-68
2023/01/21 04:13:21;;;;;;;1.50;1.40;;;0.20;99.90;;;;;;5024489;28;20205;-67
2023/01/21 04:15:48;;;;;;;1.90;1.73;;;0.40;99.90;;;;;;5032858;28;20608;-67
2023/01/21 04:18:16;;;;;;;0.73;0.65;;;0.30;99.90;;;;;;5024485;28;20244;-67
2023/01/21 04:20:46;;;;;;;1.60;1.30;;;0.20;99.90;;;;;;5033015;28;20608;-68
2023/01/21 04:23:14;;;;;;;1.90;1.80;;;0.10;99.90;;;;;;5034250;28;20303;-67
2023/01/21 04:25:43;;;;;;;2.28;1.98;;;0.30;99.90;;;;;;5034151;28;20227;-67
2023/01/21 04:28:11;;;;;;;3.22;2.10;;;0.30;99.90;;;;;;5028818;28;20232;-69
2023/01/21 04:30:38;;;;;;;4.95;1.25;;;0.30;99.90;;;;;;5030651;28;20203;-67
2023/01/21 04:33:06;;;;;;;1.08;0.98;;;0.50;99.90;;;;;;5031556;28;20630;-69
2023/01/21 04:35:35;;;;;;;2.17;1.70;;;0.50;99.90;;;;;;5029328;28;20204;-69
2023/01/21 04:38:03;;;;;;;2.30;1.88;;;0.70;99.90;;;;;;5027518;28;20303;-69
2023/01/21 04:40:31;;;;;;;2.08;1.75;;;0.80;99.90;;;;;;5030572;28;20214;-67
2023/01/21 04:43:00;;;;;;;2.25;1.00;;;0.60;99.90;;;;;;5026325;28;20221;-69
2023/01/21 04:45:28;;;;;;;3.05;1.92;;;0.60;99.90;;;;;;5028638;28;20567;-68
2023/01/21 04:47:56;;;;;;;2.13;1.90;;;0.50;99.90;;;;;;5029586;28;20307;-68
2023/01/21 04:50:24;;;;;;;3.55;2.83;;;0.30;99.90;;;;;;5031075;28;20581;-67
2023/01/21 04:52:51;;;;;;;1.88;1.67;;;0.40;99.90;;;;;;5027907;28;20553;-68
2023/01/21 04:55:19;;;;;;;2.65;2.45;;;0.60;99.90;;;;;;5029118;28;20255;-68
2023/01/21 04:57:47;;;;;;;2.08;1.52;;;0.50;99.90;;;;;;5031580;28;20876;-68
2023/01/21 05:00:17;;;;;;;2.42;2.22;;;0.50;99.90;;;;;;5030734;28;20288;-65
2023/01/21 05:02:46;;;;;;;1.67;1.58;;;0.70;99.90;;;;;;5029107;28;20228;-69
2023/01/21 05:05:14;;;;;;;3.50;3.20;;;1.00;99.90;;;;;;5030410;28;20299;-68
2023/01/21 05:07:42;;;;;;;2.42;1.95;;;1.20;99.90;;;;;;5026994;28;20697;-67
2023/01/21 05:10:15;;;;;;;3.00;1.85;;;1.30;99.90;;;;;;5029650;28;21934;-68
2023/01/21 05:12:43;;;;;;;2.65;2.17;;;1.40;99.90;;;;;;5026283;28;20202;-67
2023/01/21 05:15:12;;;;;;;1.90;1.75;;;1.50;99.90;;;;;;5029662;28;20287;-67
2023/01/21 05:17:41;;;;;;;2.38;2.17;;;1.60;99.90;;;;;;5031619;28;20226;-68
2023/01/21 05:20:10;;;;;;;3.25;2.95;;;1.30;99.90;;;;;;5031074;28;20580;-68
2023/01/21 05:22:38;;;;;;;1.95;1.73;;;1.30;99.90;;;;;;5030337;28;20267;-68
2023/01/21 05:25:06;;;;;;;2.83;1.73;;;1.40;99.90;;;;;;5029651;28;20228;-67
2023/01/21 05:27:34;;;;;;;3.53;1.75;;;1.40;99.90;;;;;;5023595;28;20323;-67
2023/01/21 05:30:02;;;;;;;1.92;1.55;;;1.40;99.90;;;;;;5028572;28;20232;-68
2023/01/21 05:32:30;;;;;;;4.75;2.33;;;1.50;99.90;;;;;;5022076;28;20215;-68
2023/01/21 05:34:59;;;;;;;2.80;2.55;;;1.60;99.90;;;;;;5028587;28;20297;-70
2023/01/21 05:37:27;;;;;;;1.90;1.80;;;1.70;99.90;;;;;;5032372;28;20196;-68
2023/01/21 05:39:55;;;;;;;2.08;1.88;;;1.80;99.90;;;;;;5029736;28;20311;-65
2023/01/21 05:42:23;;;;;;;1.67;1.58;;;1.90;99.90;;;;;;5032184;28;20746;-64
2023/01/21 05:44:51;;;;;;;2.20;1.73;;;2.00;99.90;;;;;;5032544;28;20759;-63
2023/01/21 05:47:18;;;;;;;1.52;1.42;;;2.00;99.90;;;;;;5032647;28;20295;-64
2023/01/21 05:49:46;;;;;;;1.77;1.63;;;2.00;99.90;;;;;;5034277;28;20197;-63
2023/01/21 05:52:16;;;;;;;2.65;2.15;;;2.10;99.90;;;;;;5052969;28;20208;-63
2023/01/21 05:54:43;;;;;;;2.97;2.17;;;2.10;99.90;;;;;;5044396;28;20217;-63
2023/01/21 05:57:28;;;;;;;3.10;2.50;;;2.20;99.90;;;;;;5032652;28;20505;-64
2023/01/21 05:59:56;;;;;;;4.80;3.05;;;2.20;99.90;;;;;;5031420;28;20285;-64
2023/01/21 06:02:24;;;;;;;2.63;2.42;;;2.20;99.90;;;;;;5032768;28;20642;-64
2023/01/21 06:04:52;;;;;;;2.10;1.33;;;2.30;99.90;;;;;;5028543;28;20745;-64
2023/01/21 06:07:21;;;;;;;2.03;1.67;;;2.20;99.90;;;;;;5029626;28;20922;-64
2023/01/21 06:09:49;;;;;;;5.10;2.55;;;2.30;99.90;;;;;;5028554;28;20692;-63
2023/01/21 06:12:17;;;;;;;1.27;1.17;;;2.30;99.90;;;;;;5030499;28;20256;-63
2023/01/21 06:14:45;;;;;;;3.40;2.75;;;2.30;99.90;;;;;;5022582;28;20236;-64
2023/01/21 06:17:13;;;;;;;1.20;1.13;;;2.30;99.90;;;;;;5030724;28;20201;-63
2023/01/21 06:19:40;;;;;;;2.47;1.83;;;2.30;99.90;;;;;;5025576;28;20213;-64
2023/01/21 06:22:13;;;;;;;2.80;1.67;;;2.30;99.90;;;;;;5027510;28;20384;-64
2023/01/21 06:24:42;;;;;;;1.65;1.50;;;2.30;99.90;;;;;;5027421;28;20700;-64
2023/01/21 06:27:10;;;;;;;2.40;1.67;;;2.30;99.90;;;;;;5031269;28;20252;-64
2023/01/21 06:29:38;;;;;;;1.75;1.65;;;2.20;99.90;;;;;;5030147;28;20239;-64
2023/01/21 06:32:06;;;;;;;2.15;1.80;;;2.30;99.90;;;;;;5029729;28;20228;-64
2023/01/21 06:34:34;;;;;;;2.55;1.70;;;2.20;99.90;;;;;;5028813;28;20208;-64
2023/01/21 06:37:02;;;;;;;3.05;1.88;;;2.20;99.90;;;;;;5030073;28;20276;-63
2023/01/21 06:39:30;;;;;;;2.03;1.80;;;2.20;99.90;;;;;;5029740;28;20259;-64
2023/01/21 06:41:59;;;;;;;2.40;2.20;;;2.10;99.90;;;;;;5027606;28;20311;-64
2023/01/21 06:44:27;;;;;;;2.40;2.20;;;2.00;99.90;;;;;;5027021;28;20280;-64
2023/01/21 06:46:54;;;;;;;1.65;1.52;;;2.00;99.90;;;;;;5030420;28;20211;-64
2023/01/21 06:49:30;;;;;;;1.75;1.08;;;2.10;99.90;;;;;;5028196;28;20230;-63
2023/01/21 06:51:57;;;;;;;1.75;1.33;;;2.00;99.90;;;;;;5027548;28;20213;-63
2023/01/21 06:54:25;;;;;;;1.88;1.52;;;1.90;99.90;;;;;;5027962;28;20204;-64
2023/01/21 06:56:57;;;;;;;1.98;1.80;;;2.00;99.90;;;;;;5028529;28;20225;-64
2023/01/21 06:59:26;;;;;;;1.65;1.40;;;2.00;99.90;;;;;;5027839;28;20219;-64
2023/01/21 07:01:57;;;;;;;1.48;1.33;;;1.90;99.90;;;;;;5025348;28;20303;-64
2023/01/21 07:04:25;;;;;;;2.50;1.60;;;2.00;99.90;;;;;;5026969;28;20197;-64
2023/01/21 07:06:53;;;;;;;3.30;1.95;;;1.90;99.90;;;;;;5029326;28;20283;-64
2023/01/21 07:09:21;;;;;;;2.17;1.90;;;1.80;99.90;;;;;;5028325;28;20243;-65
2023/01/21 07:11:49;;;;;;;1.70;1.50;;;1.70;99.90;;;;;;5025158;28;20204;-64
2023/01/21 07:14:17;;;;;;;2.30;1.60;;;1.80;99.90;;;;;;5027176;28;20235;-64
2023/01/21 07:16:46;;;;;;;1.45;1.35;;;1.70;99.90;;;;;;5027714;28;20235;-64
2023/01/21 07:19:14;;;;;;;1.65;1.38;;;1.80;99.90;;;;;;5029020;28;20312;-63
2023/01/21 07:21:42;;;;;;;2.65;2.00;;;1.70;99.90;;;;;;5030427;28;20756;-64
2023/01/21 07:24:10;;;;;;;1.60;1.23;;;1.70;99.90;;;;;;5031053;28;20307;-64
2023/01/21 07:26:38;;;;;;;1.50;1.35;;;1.70;99.90;;;;;;5028984;28;20669;-64
2023/01/21 07:29:06;;;;;;;1.50;1.40;;;1.80;99.90;;;;;;5083976;22;20231;-61
2023/01/21 07:31:34;;;;;;;1.67;1.35;;;1.80;99.90;;;;;;5079317;28;20206;-61
2023/01/21 07:34:03;;;;;;;2.22;1.30;;;1.80;99.90;;;;;;5086810;28;20195;-62
2023/01/21 07:36:31;;;;;;;1.80;1.52;;;1.80;99.90;;;;;;5088708;28;20206;-61
2023/01/21 07:38:59;;;;;;;1.25;1.15;;;1.80;99.90;;;;;;5066077;28;20219;-61
2023/01/21 07:41:27;;;;;;;1.50;1.23;;;1.90;99.90;;;;;;5069102;28;20204;-61
2023/01/21 07:43:55;;;;;;;2.03;1.40;;;1.90;99.90;;;;;;5070580;28;20791;-61
2023/01/21 07:46:23;;;;;;;1.63;1.52;;;1.80;99.90;;;;;;5057816;28;20205;-61
2023/01/21 07:48:51;;;;;;;2.38;2.08;;;1.70;99.90;;;;;;5057588;28;20232;-61
2023/01/21 07:51:21;;;;;;;2.65;1.80;;;1.20;99.90;;;;;;5054382;28;20191;-61
2023/01/21 07:53:50;;;;;;;1.98;1.83;;;1.00;99.90;;;;;;5054925;28;20694;-61
2023/01/21 07:56:19;;;;;;;2.45;2.25;;;0.60;99.90;;;;;;5058543;28;20214;-61
2023/01/21 07:58:46;;;;;;;2.00;1.63;;;0.60;99.90;;;;;;5073721;28;20210;-61
2023/01/21 08:01:14;;;;;;;2.22;2.03;;;0.40;99.90;;;;;;5086428;28;20229;-61
2023/01/21 08:03:42;;;;;;;2.58;1.85;;;0.50;99.90;;;;;;5073488;28;20673;-61
2023/01/21 08:06:10;;;;;;;1.65;1.50;;;0.30;99.90;;;;;;5072183;28;20352;-61
2023/01/21 08:08:39;;;;;;;2.85;1.90;;;0.40;99.90;;;;;;5071118;28;20677;-61
2023/01/21 08:11:07;;;;;;;4.07;1.73;;;0.30;99.90;;;;;;5072057;28;20214;-61
2023/01/21 08:13:35;;;;;;;4.40;2.40;;;0.20;99.90;;;;;;5069894;28;20207;-62
2023/01/21 08:16:03;;;;;;;3.90;1.80;;;0.10;99.90;;;;;;5071001;28;20679;-63
2023/01/21 08:18:31;;;;;;;3.00;2.67;;;0.00;99.90;;;;;;5073841;28;20212;-62
2023/01/21 08:20:59;;;;;;;1.65;1.30;;;-0.10;99.90;;;;;;5072435;28;20203;-62
2023/01/21 08:23:27;;;;;;;2.08;1.88;;;-0.10;99.90;;;;;;5075578;28;20204;-62
2023/01/21 08:25:56;;;;;;;1.38;1.10;;;-0.20;99.90;;;;;;5076489;28;20198;-62
2023/01/21 08:28:26;;;;;;;1.50;1.40;;;-0.20;99.90;;;;;;5077507;28;20234;-62
2023/01/21 08:30:54;;;;;;;1.25;1.08;;;-0.30;99.90;;;;;;5067344;28;20207;-62
2023/01/21 08:33:22;;;;;;;3.40;1.13;;;-0.40;99.90;;;;;;5068305;28;20266;-62
2023/01/21 08:35:50;;;;;;;1.77;1.67;;;-0.40;99.90;;;;;;5064779;28;20258;-61
2023/01/21 08:38:18;;;;;;;1.75;1.55;;;-0.50;99.90;;;;;;5069201;28;20223;-62
2023/01/21 08:40:45;;;;;;;1.00;0.90;;;-0.50;99.90;;;;;;5062747;28;20209;-62
2023/01/21 08:43:15;;;;;;;3.03;2.30;;;-0.40;99.90;;;;;;5067921;28;20223;-62
2023/01/21 08:45:42;;;;;;;4.00;2.25;;;-0.40;99.90;;;;;;5063696;28;20294;-62
2023/01/21 08:48:10;;;;;;;1.60;1.50;;;-0.40;99.90;;;;;;5069379;28;21246;-62
2023/01/21 08:50:38;;;;;;;1.77;1.67;;;-0.40;99.90;;;;;;5067763;28;20303;-62
2023/01/21 08:53:06;;;;;;;1.83;1.73;;;-0.40;99.90;;;;;;5068915;28;20209;-61
2023/01/21 08:55:34;;;;;;;1.45;0.95;;;-0.30;99.90;;;;;;5070802;28;20202;-63
2023/01/21 08:58:02;;;;;;;1.90;1.20;;;-0.30;99.90;;;;;;5065694;28;20211;-62
2023/01/21 09:00:31;;;;;;;1.55;1.42;;;-0.30;99.90;;;;;;5066274;28;20278;-61
2023/01/21 09:02:59;;;;;;;1.25;1.05;;;-0.30;99.90;;;;;;5064962;28;20277;-62
2023/01/21 09:05:27;;;;;;;1.65;1.55;;;-0.30;99.90;;;;;;5069355;28;20223;-61
2023/01/21 09:07:55;;;;;;;1.65;1.27;;;-0.20;99.90;;;;;;5066957;28;20204;-61
2023/01/21 09:13:10;;;;;;;2.35;2.00;;;-0.10;99.90;;;;;;5077216;28;20210;-61
2023/01/21 09:15:41;;;;;;;2.08;1.98;;;0.00;99.90;;;;;;5067881;28;20710;-61
2023/01/21 09:18:09;;;;;;;2.58;1.98;;;0.00;99.90;;;;;;5072500;28;20214;-62
2023/01/21 09:20:38;;;;;;;2.00;1.30;;;0.10;99.90;;;;;;5064935;28;20191;-63
2023/01/21 09:23:22;;;;;;;2.45;2.15;;;0.20;99.90;;;;;;5072447;28;20239;-63
2023/01/21 09:25:51;;;;;;;2.83;1.95;;;0.30;99.90;;;;;;5064182;28;20238;-63
2023/01/21 09:28:20;;;;;;;1.73;1.55;;;0.50;99.90;;;;;;5073520;28;20234;-63
2023/01/21 09:30:49;;;;;;;1.50;1.40;;;0.70;99.90;;;;;;5062015;28;20242;-64
2023/01/21 09:33:17;;;;;;;2.65;2.17;;;0.80;99.90;;;;;;5059899;28;20208;-63
2023/01/21 09:35:45;;;;;;;5.10;2.70;;;1.00;99.90;;;;;;5072160;28;20201;-64
2023/01/21 09:38:13;;;;;;;1.73;1.63;;;1.20;99.90;;;;;;5071355;28;20265;-63
2023/01/21 09:40:45;;;;;;;2.67;1.73;;;1.30;99.90;;;;;;5070066;28;20207;-63
2023/01/21 09:43:19;;;;;;;4.25;2.28;;;1.20;99.90;;;;;;5075238;28;20230;-63
2023/01/21 09:45:50;;;;;;;2.20;2.00;;;1.10;99.90;;;;;;5069045;28;20204;-63
2023/01/21 09:48:28;;;;;;;3.50;1.67;;;1.10;99.90;;;;;;5076281;28;20671;-64
2023/01/21 09:50:59;;;;;;;4.10;2.83;;;1.20;99.90;;;;;;5067870;28;20230;-63
2023/01/21 09:53:32;;;;;;;1.60;1.50;;;1.20;99.90;;;;;;5070757;28;20203;-62
2023/01/21 09:56:05;;;;;;;3.15;2.15;;;1.30;99.90;;;;;;5061585;28;20192;-63
2023/01/21 09:58:38;;;;;;;2.38;1.58;;;1.40;99.90;;;;;;5065859;28;20724;-63
2023/01/21 10:01:14;;;;;;;3.80;2.42;;;1.40;99.90;;;;;;5074053;28;20701;-64
2023/01/21 10:03:48;;;;;;;4.70;2.67;;;1.30;99.90;;;;;;5070666;28;20199;-64
2023/01/21 10:06:21;;;;;;;2.13;1.95;;;1.30;99.90;;;;;;5067954;28;20210;-64
2023/01/21 10:09:22;;;;;;;1.52;1.42;;;1.30;99.90;;;;;;5065990;28;20290;-63
2023/01/21 10:12:04;;;;;;;1.75;1.65;;;1.40;99.90;;;;;;5065743;28;20199;-63
2023/01/21 10:15:01;;;;;;;1.85;1.63;;;1.70;99.90;;;;;;5073503;28;20203;-63
2023/01/21 10:17:40;;;;;;;2.08;1.88;;;1.80;99.90;;;;;;5071812;28;20294;-62
2023/01/21 10:20:14;;;;;;;5.90;1.60;;;1.90;99.90;;;;;;5066928;28;20730;-62
2023/01/21 10:22:49;;;;;;;2.95;2.35;;;2.10;99.90;;;;;;5065680;28;20326;-62
2023/01/21 10:25:23;;;;;;;2.53;2.33;;;2.00;99.90;;;;;;5067269;28;20203;-63
2023/01/21 10:27:52;;;;;;;2.63;1.55;;;2.10;99.90;;;;;;5067665;28;20202;-62
2023/01/21 10:30:24;;;;;;;2.03;1.60;;;2.10;99.90;;;;;;5024950;28;20220;-62
2023/01/21 10:32:55;;;;;;;1.98;1.63;;;2.20;99.90;;;;;;5025901;28;20679;-63
2023/01/21 10:35:38;;;;;;;6.03;1.95;;;2.40;99.90;;;;;;5028888;28;20247;-64
2023/01/21 10:38:13;;;;;;;1.95;1.75;;;2.40;99.90;;;;;;5027727;28;20207;-63
2023/01/21 10:40:51;;;;;;;3.90;2.40;;;2.60;99.90;;;;;;5022071;28;20202;-62
2023/01/21 10:43:30;;;;;;;2.75;2.20;;;2.90;99.90;;;;;;5025092;28;20618;-62
2023/01/21 10:46:08;;;;;;;2.17;1.58;;;2.70;99.90;;;;;;5030699;28;20207;-62
2023/01/21 10:48:46;;;;;;;2.28;2.00;;;2.80;99.90;;;;;;5025730;28;20220;-62
2023/01/21 10:51:20;;;;;;;1.73;1.52;;;2.60;99.90;;;;;;5027481;28;20808;-62
2023/01/21 10:53:55;;;;;;;2.65;2.45;;;2.60;99.90;;;;;;5024826;28;20638;-62
2023/01/21 10:56:33;;;;;;;1.95;1.83;;;2.40;99.90;;;;;;5029880;28;20197;-62
2023/01/21 10:59:05;;;;;;;1.67;1.50;;;2.10;99.90;;;;;;5021840;28;20249;-63
2023/01/21 11:01:35;;;;;;;2.85;1.73;;;1.90;99.90;;;;;;5024776;28;20215;-63
2023/01/21 11:04:12;;;;;;;1.13;1.05;;;1.70;99.90;;;;;;5021283;28;20264;-62
2023/01/21 11:06:41;;;;;;;1.90;1.55;;;1.50;99.90;;;;;;5024450;28;20199;-63
2023/01/21 11:09:12;;;;;;;2.33;2.13;;;1.40;99.90;;;;;;5029746;28;20358;-63
2023/01/21 11:11:41;;;;;;;2.22;1.65;;;1.20;99.90;;;;;;5023601;28;20614;-62
2023/01/21 11:14:10;;;;;;;1.58;1.30;;;1.10;99.90;;;;;;5022516;28;20197;-62
2023/01/21 11:16:43;;;;;;;1.23;1.13;;;1.00;99.90;;;;;;5020198;28;20236;-62
2023/01/21 11:19:15;;;;;;;1.70;1.60;;;1.00;99.90;;;;;;5022522;28;20226;-63
2023/01/21 11:21:59;;;;;;;3.25;2.28;;;0.90;99.90;;;;;;5021623;28;20204;-63
2023/01/21 11:24:28;;;;;;;2.17;1.25;;;0.90;99.90;;;;;;5023309;28;20669;-62
2023/01/21 11:26:59;;;;;;;2.45;1.67;;;0.80;99.90;;;;;;5030045;28;20206;-63
2023/01/21 11:29:38;;;;;;;3.47;2.63;;;0.80;99.90;;;;;;5063866;28;20242;-63
2023/01/21 11:32:17;;;;;;;2.28;2.08;;;0.70;99.90;;;;;;5071487;28;20755;-63
2023/01/21 11:34:48;;;;;;;1.88;1.67;;;0.70;99.90;;;;;;5062301;28;20199;-63
2023/01/21 11:37:22;;;;;;;1.67;0.90;;;0.70;99.90;;;;;;5069850;28;20223;-63
2023/01/21 11:39:54;;;;;;;2.33;2.13;;;0.70;99.90;;;;;;5069196;28;20261;-63
2023/01/21 11:42:23;;;;;;;1.70;1.38;;;0.70;99.90;;;;;;5068010;28;20207;-63
2023/01/21 11:44:53;;;;;;;2.75;2.15;;;0.70;99.90;;;;;;5067737;28;20204;-63
2023/01/21 11:47:37;;;;;;;2.00;1.50;;;0.80;99.90;;;;;;5069740;28;20236;-62
2023/01/21 11:50:16;;;;;;;4.28;1.45;;;0.70;99.90;;;;;;5069167;28;20215;-62
2023/01/21 11:52:44;;;;;;;1.77;1.67;;;0.70;99.90;;;;;;5069649;28;20206;-62
2023/01/21 11:55:21;;;;;;;1.67;1.48;;;0.70;99.90;;;;;;5069803;28;20246;-63
2023/01/21 11:57:51;;;;;;;1.30;1.15;;;0.70;99.90;;;;;;5068207;28;20203;-62
2023/01/21 12:00:22;;;;;;;0.70;0.63;;;0.60;99.90;;;;;;5068704;28;20201;-63
2023/01/21 12:02:53;;;;;;;1.17;1.08;;;0.60;99.90;;;;;;5075376;28;20277;-63
2023/01/21 12:05:29;;;;;;;1.98;0.98;;;0.60;99.90;;;;;;5072343;28;20819;-64
2023/01/21 12:07:58;;;;;;;1.05;0.80;;;0.60;99.90;;;;;;5069662;28;20203;-63
2023/01/21 12:10:31;;;;;;;2.15;1.52;;;0.70;99.90;;;;;;5068715;28;20603;-63
2023/01/21 12:13:14;;;;;;;2.05;1.55;;;0.70;99.90;;;;;;5069299;28;20326;-63
2023/01/21 12:15:57;;;;;;;2.45;1.38;;;0.70;99.90;;;;;;5052985;28;20194;-62
2023/01/21 12:18:37;;;;;;;1.25;1.15;;;0.70;99.90;;;;;;5069426;28;20265;-63
2023/01/21 12:21:13;;;;;;;1.17;0.80;;;0.70;99.90;;;;;;5069079;28;20201;-63
2023/01/21 12:23:55;;;;;;;1.90;1.55;;;0.80;99.90;;;;;;5069449;28;20199;-62
2023/01/21 12:26:38;;;;;;;1.02;0.93;;;0.80;99.90;;;;;;5069391;28;20272;-62
2023/01/21 12:29:19;;;;;;;2.17;0.70;;;0.80;99.90;;;;;;5067565;28;20239;-63
2023/01/21 12:31:53;;;;;;;1.25;1.15;;;0.80;99.90;;;;;;5063250;28;20215;-62
2023/01/21 12:34:27;;;;;;;1.35;1.00;;;0.60;99.90;;;;;;5081635;28;20195;-62
2023/01/21 12:37:02;;;;;;;3.90;1.35;;;0.60;99.90;;;;;;5072876;28;20759;-62
2023/01/21 12:39:33;;;;;;;1.65;1.40;;;0.60;99.90;;;;;;5072335;28;20309;-62
2023/01/21 12:42:07;;;;;;;2.45;2.25;;;0.60;99.90;;;;;;5073146;28;20192;-63
2023/01/21 12:44:41;;;;;;;1.27;0.95;;;0.60;99.90;;;;;;5064899;28;21057;-62
2023/01/21 12:47:19;;;;;;;1.73;1.15;;;0.60;99.90;;;;;;5069433;28;20208;-62
2023/01/21 12:50:07;;;;;;;0.82;0.80;;;0.70;99.90;;;;;;5063646;28;20280;-63
2023/01/21 12:52:41;;;;;;;1.08;0.98;;;0.70;99.90;;;;;;5071762;28;20223;-63
2023/01/21 12:55:18;;;;;;;1.92;1.80;;;0.80;99.90;;;;;;5071424;28;20199;-61
2023/01/21 12:57:50;;;;;;;1.65;1.55;;;0.80;99.90;;;;;;5073129;28;20199;-62
2023/01/21 13:00:22;;;;;;;2.63;1.67;;;0.80;99.90;;;;;;5064584;28;20223;-63
2023/01/21 13:02:58;;;;;;;1.38;1.27;;;0.90;99.90;;;;;;5067845;28;20615;-64
2023/01/21 13:05:34;;;;;;;2.60;2.00;;;1.00;99.90;;;;;;5068123;28;20723;-64
2023/01/21 13:08:20;;;;;;;1.40;1.10;;;1.10;99.90;;;;;;5067166;28;20195;-63
2023/01/21 13:10:55;;;;;;;2.38;1.55;;;1.20;99.90;;;;;;5071410;28;20199;-63
2023/01/21 13:13:28;;;;;;;2.03;1.42;;;1.20;99.90;;;;;;5079099;28;20619;-63
2023/01/21 13:16:00;;;;;;;1.35;0.80;;;1.20;99.90;;;;;;5060514;28;20223;-62
2023/01/21 13:18:32;;;;;;;2.15;1.65;;;1.10;99.90;;;;;;5070122;28;20216;-63
2023/01/21 13:21:08;;;;;;;1.55;1.20;;;1.10;99.90;;;;;;5075452;28;20199;-63
2023/01/21 13:23:44;;;;;;;1.20;0.95;;;1.10;99.90;;;;;;5062206;28;20204;-63
2023/01/21 13:26:18;;;;;;;1.42;1.23;;;1.20;99.90;;;;;;5072125;28;20213;-63